Vihari Weather



Vihari's Current Weather

Temprature 39.68o overcast clouds

overcast clouds

Rain: 0 %

Min Temprature39.68o
Max Temprature39.68o
Humidity33
Wind Speed1.85 m/h
Sun Rise05:24:32
Sun Set19:09:21
Current Time: 24-Jul-2021 16:46:51
Lat/Lon: 30.0333, 72.35




Vihari's Geo Location



Vihari's Weather Forecast

Time Overall Temp Min Temp Max Temp Humidity Wind Speed Rain
24-Jul-2021 (Sat)
17:00:00 overcast clouds 39.680 39.680 39.680 33 1.85 m/h 0 %
20:00:00 broken clouds 38.890 37.300 38.890 35 2.77 m/h 0 %
23:00:00 scattered clouds 37.470 36.360 37.470 39 2.74 m/h 0 %
25-Jul-2021 (Sun)
02:00:00 clear sky 35.310 35.310 35.310 46 2.84 m/h 0 %
05:00:00 clear sky 34.530 34.530 34.530 48 2.47 m/h 0 %
08:00:00 few clouds 37.810 37.810 37.810 39 2.45 m/h 0 %
11:00:00 scattered clouds 41.480 41.480 41.480 30 2.77 m/h 0 %
14:00:00 clear sky 44.230 44.230 44.230 24 3.6 m/h 0 %
17:00:00 few clouds 43.890 43.890 43.890 24 5 m/h 0 %
20:00:00 scattered clouds 41.250 41.250 41.250 28 3.87 m/h 0 %
23:00:00 broken clouds 40.030 40.030 40.030 30 4.08 m/h 0 %
26-Jul-2021 (Mon)
02:00:00 few clouds 36.980 36.980 36.980 40 6.72 m/h 0 %
05:00:00 scattered clouds 35.690 35.690 35.690 44 6.05 m/h 0 %
08:00:00 few clouds 36.880 36.880 36.880 42 6.95 m/h 0 %
11:00:00 scattered clouds 41.360 41.360 41.360 31 6.72 m/h 0 %
14:00:00 overcast clouds 42.170 42.170 42.170 29 6.21 m/h 0 %
17:00:00 overcast clouds 41.380 41.380 41.380 30 5.86 m/h 0 %
20:00:00 overcast clouds 39.040 39.040 39.040 34 6.63 m/h 0 %
23:00:00 overcast clouds 36.850 36.850 36.850 40 8.23 m/h 0 %
27-Jul-2021 (Tue)
02:00:00 broken clouds 34.280 34.280 34.280 48 9.19 m/h 0 %
05:00:00 overcast clouds 31.460 31.460 31.460 60 8.57 m/h 0 %
08:00:00 overcast clouds 32.400 32.400 32.400 58 8.02 m/h 0 %
11:00:00 overcast clouds 36.220 36.220 36.220 44 7.59 m/h 0 %
14:00:00 overcast clouds 38.050 38.050 38.050 38 7.72 m/h 0 %
17:00:00 overcast clouds 37.510 37.510 37.510 39 7.49 m/h 0 %
20:00:00 broken clouds 34.630 34.630 34.630 47 7.81 m/h 0 %
23:00:00 overcast clouds 32.760 32.760 32.760 54 6.54 m/h 0 %
28-Jul-2021 (Wed)
02:00:00 broken clouds 31.100 31.100 31.100 62 5.64 m/h 0 %
05:00:00 broken clouds 30.420 30.420 30.420 65 4.59 m/h 0 %
08:00:00 broken clouds 32.170 32.170 32.170 59 5.79 m/h 0 %
11:00:00 broken clouds 36.210 36.210 36.210 44 5.18 m/h 0 %
14:00:00 overcast clouds 38.540 38.540 38.540 37 5.45 m/h 0 %
17:00:00 overcast clouds 38.210 38.210 38.210 37 5.2 m/h 0 %
20:00:00 overcast clouds 35.630 35.630 35.630 44 5.64 m/h 0 %
23:00:00 overcast clouds 33.430 33.430 33.430 50 6.11 m/h 0 %
29-Jul-2021 (Thu)
02:00:00 broken clouds 32.840 32.840 32.840 53 3.04 m/h 0 %
05:00:00 light rain 31.440 31.440 31.440 60 1.09 m/h 145 %
08:00:00 light rain 33.560 33.560 33.560 53 2.04 m/h 10 %
11:00:00 overcast clouds 37.470 37.470 37.470 41 1.62 m/h 0 %
14:00:00 overcast clouds 38.310 38.310 38.310 39 4.86 m/h 0 %

Famous Cities (60)